createdAt,value
2023-02-21T00:00:17.078Z,8.52
2023-02-21T00:02:09.625Z,9.18
2023-02-21T00:04:00.824Z,7.57
2023-02-21T00:05:51.832Z,9.52
2023-02-21T00:07:43.532Z,8.55
2023-02-21T00:09:34.562Z,8.15
2023-02-21T00:11:25.538Z,8.88
2023-02-21T00:13:16.503Z,9.60
2023-02-21T00:15:07.391Z,9.23
2023-02-21T00:16:59.554Z,8.90
2023-02-21T00:18:53.577Z,10.00
2023-02-21T00:20:44.622Z,8.57
2023-02-21T00:22:35.653Z,8.73
2023-02-21T00:24:27.008Z,9.02
2023-02-21T00:26:17.921Z,9.23
2023-02-21T00:28:08.805Z,8.85
2023-02-21T00:29:59.673Z,9.48
2023-02-21T00:31:50.418Z,9.02
2023-02-21T00:33:42.460Z,8.52
2023-02-21T00:35:33.344Z,8.65
2023-02-21T00:37:24.372Z,8.65
2023-02-21T00:39:14.986Z,7.90
2023-02-21T00:41:06.838Z,8.10
2023-02-21T00:42:58.120Z,8.43
2023-02-21T00:44:49.053Z,8.20
2023-02-21T00:46:40.405Z,8.35
2023-02-21T00:48:30.903Z,8.52
2023-02-21T00:50:24.136Z,8.30
2023-02-21T00:52:15.107Z,7.80
2023-02-21T00:54:05.984Z,7.40
2023-02-21T00:55:56.884Z,7.85
2023-02-21T00:57:47.813Z,7.63
2023-02-21T00:59:38.643Z,8.27
2023-02-21T01:01:29.676Z,7.88
2023-02-21T01:03:21.099Z,7.63
2023-02-21T01:05:12.011Z,8.32
2023-02-21T01:07:04.177Z,7.22
2023-02-21T01:08:55.126Z,8.23
2023-02-21T01:10:46.113Z,8.25
2023-02-21T01:12:37.185Z,8.75
2023-02-21T01:14:28.558Z,8.10
2023-02-21T01:16:19.492Z,8.68
2023-02-21T01:18:10.236Z,8.15
2023-02-21T01:20:01.163Z,8.63
2023-02-21T01:21:51.950Z,9.02
2023-02-21T01:23:44.853Z,8.50
2023-02-21T01:27:26.370Z,7.53
2023-02-21T01:29:17.467Z,7.93
2023-02-21T01:31:08.451Z,9.10
2023-02-21T01:32:59.400Z,7.90
2023-02-21T01:34:50.297Z,7.75
2023-02-21T01:36:41.125Z,8.70
2023-02-21T01:38:32.010Z,7.85
2023-02-21T01:40:25.989Z,8.48
2023-02-21T01:42:16.859Z,8.50
2023-02-21T01:44:23.151Z,8.80
2023-02-21T01:46:17.317Z,8.05
2023-02-21T01:48:08.133Z,8.52
2023-02-21T01:50:00.655Z,8.27
2023-02-21T01:51:57.647Z,8.90
2023-02-21T01:53:48.547Z,8.68
2023-02-21T01:55:42.581Z,8.88
2023-02-21T01:57:33.968Z,8.68
2023-02-21T01:59:24.749Z,8.88
2023-02-21T02:01:16.265Z,8.90
2023-02-21T02:03:14.473Z,8.95
2023-02-21T02:06:58.565Z,8.35
2023-02-21T02:08:51.817Z,8.38
2023-02-21T02:10:45.582Z,8.27
2023-02-21T02:12:58.712Z,8.15
2023-02-21T02:14:56.890Z,7.55
2023-02-21T02:18:47.399Z,7.68
2023-02-21T02:21:06.364Z,8.70
2023-02-21T02:23:10.273Z,7.50
2023-02-21T02:25:21.378Z,7.88
2023-02-21T02:27:34.780Z,8.48
2023-02-21T02:29:38.671Z,9.45
2023-02-21T02:31:39.661Z,8.95
2023-02-21T02:34:01.302Z,8.77
2023-02-21T02:35:42.796Z,8.75
2023-02-21T02:37:24.683Z,8.07
2023-02-21T02:39:11.976Z,8.80
2023-02-21T02:40:58.008Z,8.15
2023-02-21T02:42:49.012Z,9.07
2023-02-21T02:44:30.628Z,8.40
2023-02-21T02:46:12.198Z,8.43
2023-02-21T02:47:51.386Z,9.13
2023-02-21T02:49:30.473Z,8.88
2023-02-21T02:51:10.367Z,8.77
2023-02-21T02:52:52.873Z,8.50
2023-02-21T02:54:26.171Z,8.05
2023-02-21T02:56:02.220Z,9.25
2023-02-21T02:57:41.052Z,8.73
2023-02-21T02:59:21.238Z,8.88
2023-02-21T03:01:14.625Z,8.93
2023-02-21T03:03:09.321Z,9.02
2023-02-21T03:05:03.733Z,9.13
2023-02-21T03:07:00.283Z,8.90
2023-02-21T03:08:43.585Z,9.93
2023-02-21T03:10:27.097Z,8.63
2023-02-21T03:12:08.893Z,9.75
2023-02-21T03:13:49.996Z,9.40
2023-02-21T03:15:33.385Z,9.90
2023-02-21T03:17:14.393Z,10.23
2023-02-21T03:18:51.971Z,9.18
2023-02-21T03:20:28.139Z,10.20
2023-02-21T03:22:08.026Z,9.77
2023-02-21T03:23:44.554Z,10.85
2023-02-21T03:25:20.384Z,9.10
2023-02-21T03:27:00.549Z,9.23
2023-02-21T03:28:53.363Z,9.20
2023-02-21T03:30:27.907Z,9.35
2023-02-21T03:32:10.928Z,10.10
2023-02-21T03:33:44.718Z,9.82
2023-02-21T03:35:19.261Z,9.55
2023-02-21T03:36:53.064Z,9.10
2023-02-21T03:38:29.610Z,9.75
2023-02-21T03:40:06.246Z,9.65
2023-02-21T03:41:40.600Z,9.50
2023-02-21T03:43:13.915Z,9.98
2023-02-21T03:44:57.763Z,9.77
2023-02-21T03:46:30.168Z,9.77
2023-02-21T03:48:04.580Z,9.85
2023-02-21T03:49:39.525Z,9.55
2023-02-21T03:51:14.277Z,9.48
2023-02-21T03:52:47.705Z,9.98
2023-02-21T03:54:22.402Z,11.27
2023-02-21T03:55:57.665Z,10.45
2023-02-21T03:57:39.600Z,9.77
2023-02-21T03:59:11.956Z,9.48
2023-02-21T04:00:45.171Z,9.93
2023-02-21T04:02:19.076Z,9.73
2023-02-21T04:03:52.482Z,10.18
2023-02-21T04:05:25.726Z,10.20
2023-02-21T04:07:00.193Z,10.02
2023-02-21T04:08:32.725Z,10.32
2023-02-21T04:10:07.858Z,10.32
2023-02-21T04:11:48.900Z,9.45
2023-02-21T04:13:24.369Z,9.75
2023-02-21T04:14:58.646Z,9.55
2023-02-21T04:16:32.206Z,10.20
2023-02-21T04:18:04.685Z,9.50
2023-02-21T04:19:38.163Z,10.85
2023-02-21T04:21:12.706Z,10.48
2023-02-21T04:22:51.799Z,10.43
2023-02-21T04:24:32.465Z,10.82
2023-02-21T04:26:06.247Z,10.18
2023-02-21T04:27:52.594Z,10.45
2023-02-21T04:29:26.373Z,10.38
2023-02-21T04:30:59.504Z,10.32
2023-02-21T04:32:32.713Z,10.40
2023-02-21T04:34:12.401Z,10.50
2023-02-21T04:35:50.453Z,10.70
2023-02-21T04:37:40.781Z,10.18
2023-02-21T04:39:14.805Z,10.82
2023-02-21T04:40:48.009Z,11.18
2023-02-21T04:42:22.790Z,11.07
2023-02-21T04:43:56.423Z,10.73
2023-02-21T04:45:29.257Z,11.50
2023-02-21T04:47:02.559Z,10.52
2023-02-21T04:48:35.816Z,10.88
2023-02-21T04:50:09.986Z,11.95
2023-02-21T04:51:43.531Z,10.95
2023-02-21T04:53:16.963Z,11.13
2023-02-21T04:54:50.118Z,11.15
2023-02-21T04:56:27.348Z,10.48
2023-02-21T04:58:01.915Z,12.13
2023-02-21T04:59:35.037Z,11.95
2023-02-21T05:01:08.444Z,11.35
2023-02-21T05:02:44.092Z,10.75
2023-02-21T05:04:17.202Z,10.52
2023-02-21T05:05:50.942Z,10.82
2023-02-21T05:07:23.282Z,10.82
2023-02-21T05:08:57.371Z,11.13
2023-02-21T05:10:44.598Z,11.25
2023-02-21T05:12:18.243Z,11.75
2023-02-21T05:13:53.004Z,11.25
2023-02-21T05:15:26.567Z,12.10
2023-02-21T05:16:59.626Z,11.43
2023-02-21T05:18:34.587Z,12.32
2023-02-21T05:20:11.564Z,11.27
2023-02-21T05:21:44.713Z,12.02
2023-02-21T05:23:18.826Z,11.38
2023-02-21T05:24:52.061Z,12.00
2023-02-21T05:26:29.770Z,11.93
2023-02-21T05:28:02.873Z,12.25
2023-02-21T05:29:36.277Z,11.95
2023-02-21T05:31:09.622Z,12.40
2023-02-21T05:32:43.484Z,12.38
2023-02-21T05:34:19.722Z,11.65
2023-02-21T05:35:52.797Z,11.55
2023-02-21T05:37:26.067Z,12.02
2023-02-21T05:38:58.510Z,13.18
2023-02-21T05:40:31.701Z,11.63
2023-02-21T05:42:04.133Z,12.32
2023-02-21T05:43:37.227Z,12.30
2023-02-21T05:45:12.716Z,12.18
2023-02-21T05:46:46.010Z,12.20
2023-02-21T05:48:19.145Z,11.02
2023-02-21T05:49:52.322Z,11.65
2023-02-21T05:51:27.467Z,11.80
2023-02-21T05:53:02.524Z,12.25
2023-02-21T05:54:35.766Z,11.82
2023-02-21T05:56:10.610Z,11.80
2023-02-21T05:59:19.696Z,10.90
2023-02-21T06:00:53.155Z,12.02
2023-02-21T06:02:26.351Z,12.98
2023-02-21T06:03:59.561Z,12.02
2023-02-21T06:05:32.061Z,11.93
2023-02-21T06:07:05.673Z,12.68
2023-02-21T06:08:47.867Z,12.35
2023-02-21T06:10:22.038Z,12.98
2023-02-21T06:11:59.827Z,12.43
2023-02-21T06:13:33.701Z,13.13
2023-02-21T06:15:08.642Z,12.60
2023-02-21T06:16:43.739Z,13.45
2023-02-21T06:18:18.105Z,13.38
2023-02-21T06:19:51.320Z,12.85
2023-02-21T06:21:24.856Z,13.00
2023-02-21T06:22:57.934Z,13.18
2023-02-21T06:24:31.157Z,13.27
2023-02-21T06:26:04.551Z,13.43
2023-02-21T06:27:38.546Z,12.98
2023-02-21T06:29:12.602Z,14.20
2023-02-21T06:30:46.277Z,13.15
2023-02-21T06:32:20.828Z,13.07
2023-02-21T06:33:54.408Z,14.13
2023-02-21T06:35:27.766Z,13.93
2023-02-21T06:37:01.091Z,13.93
2023-02-21T06:38:34.354Z,13.27
2023-02-21T06:40:08.477Z,14.30
2023-02-21T06:41:41.543Z,13.30
2023-02-21T06:43:15.867Z,13.50
2023-02-21T06:44:50.569Z,13.63
2023-02-21T06:46:27.433Z,14.80
2023-02-21T06:48:01.912Z,13.88
2023-02-21T06:49:35.321Z,13.82
2023-02-21T06:51:11.185Z,13.85
2023-02-21T06:52:44.720Z,13.65
2023-02-21T06:54:17.957Z,14.43
2023-02-21T06:55:51.109Z,14.75
2023-02-21T06:57:24.288Z,13.52
2023-02-21T06:58:57.717Z,13.57
2023-02-21T07:00:31.051Z,15.57
2023-02-21T07:02:04.688Z,14.50
2023-02-21T07:03:44.232Z,14.20
2023-02-21T07:05:17.492Z,14.18
2023-02-21T07:06:50.931Z,15.38
2023-02-21T07:08:25.781Z,14.70
2023-02-21T07:11:34.245Z,13.57
2023-02-21T07:13:07.407Z,13.27
2023-02-21T07:14:40.692Z,13.25
2023-02-21T07:16:14.391Z,13.15
2023-02-21T07:17:47.528Z,14.20
2023-02-21T07:19:22.202Z,13.82
2023-02-21T07:20:55.440Z,14.07
2023-02-21T07:22:28.509Z,14.38
2023-02-21T07:24:01.695Z,15.05
2023-02-21T07:25:34.800Z,15.65
2023-02-21T07:27:08.020Z,15.63
2023-02-21T07:28:41.632Z,15.48
2023-02-21T07:30:15.925Z,15.43
2023-02-21T07:31:49.172Z,15.70
2023-02-21T07:33:22.393Z,15.60
2023-02-21T07:34:56.903Z,14.50
2023-02-21T07:36:30.214Z,15.55
2023-02-21T07:38:03.301Z,14.90
2023-02-21T07:39:36.729Z,16.05
2023-02-21T07:41:09.784Z,16.08
2023-02-21T07:42:44.528Z,15.90
2023-02-21T07:44:17.599Z,15.82
2023-02-21T07:45:50.768Z,16.10
2023-02-21T07:47:24.560Z,17.83
2023-02-21T07:48:58.064Z,16.08
2023-02-21T07:50:32.481Z,16.35
2023-02-21T07:52:05.847Z,16.98
2023-02-21T07:53:39.040Z,16.83
2023-02-21T07:55:13.434Z,16.30
2023-02-21T07:56:47.809Z,16.15
2023-02-21T07:58:21.504Z,16.98
2023-02-21T07:59:55.180Z,16.33
2023-02-21T08:01:28.693Z,16.75
2023-02-21T08:03:01.988Z,16.75
2023-02-21T08:04:35.223Z,16.08
2023-02-21T08:06:11.366Z,16.88
2023-02-21T08:07:45.185Z,15.88
2023-02-21T08:09:18.631Z,16.92
2023-02-21T08:10:52.073Z,16.08
2023-02-21T08:12:25.132Z,17.02
2023-02-21T08:13:58.252Z,15.98
2023-02-21T08:15:31.372Z,16.70
2023-02-21T08:17:04.742Z,17.38
2023-02-21T08:18:37.857Z,16.45
2023-02-21T08:20:11.668Z,17.00
2023-02-21T08:21:47.677Z,16.35
2023-02-21T08:23:21.513Z,17.23
2023-02-21T08:24:54.617Z,16.90
2023-02-21T08:26:27.733Z,16.25
2023-02-21T08:28:00.855Z,16.42
2023-02-21T08:29:34.062Z,15.50
2023-02-21T08:31:08.312Z,16.42
2023-02-21T08:32:41.846Z,15.93
2023-02-21T08:34:15.668Z,15.48
2023-02-21T08:35:48.959Z,16.10
2023-02-21T08:37:23.767Z,17.25
2023-02-21T08:38:56.886Z,15.88
2023-02-21T08:40:31.494Z,16.90
2023-02-21T08:42:04.954Z,17.95
2023-02-21T08:43:38.667Z,15.70
2023-02-21T08:45:17.924Z,16.70
2023-02-21T08:46:51.540Z,15.88
2023-02-21T08:48:25.101Z,15.65
2023-02-21T08:49:58.445Z,15.43
2023-02-21T08:51:33.723Z,15.65
2023-02-21T08:53:08.628Z,15.50
2023-02-21T08:54:41.842Z,16.15
2023-02-21T08:56:20.416Z,14.60
2023-02-21T08:57:55.776Z,14.63
2023-02-21T08:59:33.599Z,15.55
2023-02-21T09:01:07.149Z,16.23
2023-02-21T09:02:41.274Z,15.23
2023-02-21T09:04:14.424Z,14.95
2023-02-21T09:05:47.586Z,14.73
2023-02-21T09:07:23.205Z,14.38
2023-02-21T09:08:57.861Z,14.95
2023-02-21T09:10:34.331Z,15.38
2023-02-21T09:12:08.520Z,15.68
2023-02-21T09:13:41.850Z,15.55
2023-02-21T09:15:17.536Z,15.20
2023-02-21T09:16:50.771Z,14.07
2023-02-21T09:18:24.548Z,15.18
2023-02-21T09:19:57.608Z,15.02
2023-02-21T09:21:30.689Z,15.73
2023-02-21T09:23:03.792Z,15.55
2023-02-21T09:24:39.381Z,14.48
2023-02-21T09:26:12.543Z,15.60
2023-02-21T09:27:46.836Z,17.10
2023-02-21T09:29:20.399Z,15.93
2023-02-21T09:30:53.600Z,15.02
2023-02-21T09:32:28.725Z,15.70
2023-02-21T09:34:01.928Z,16.20
2023-02-21T09:35:35.312Z,16.13
2023-02-21T09:37:08.474Z,16.40
2023-02-21T09:38:42.291Z,16.85
2023-02-21T09:40:33.557Z,16.45
2023-02-21T09:42:07.000Z,16.17
2023-02-21T09:43:44.347Z,15.13
2023-02-21T09:45:19.791Z,15.52
2023-02-21T09:46:58.174Z,14.73
2023-02-21T09:48:32.676Z,15.07
2023-02-21T09:50:13.828Z,14.52
2023-02-21T09:51:47.862Z,15.18
2023-02-21T09:53:28.317Z,14.93
2023-02-21T09:55:08.539Z,14.95
2023-02-21T09:56:43.320Z,14.32
2023-02-21T09:59:52.741Z,12.23
2023-02-21T10:01:44.818Z,14.07
2023-02-21T10:03:40.199Z,13.00
2023-02-21T10:05:29.771Z,14.05
2023-02-21T10:07:12.121Z,13.23
2023-02-21T10:08:55.366Z,13.93
2023-02-21T10:10:37.016Z,14.40
2023-02-21T10:12:27.227Z,13.35
2023-02-21T10:14:14.059Z,14.00
2023-02-21T10:15:55.238Z,13.68
2023-02-21T10:17:36.404Z,13.77
2023-02-21T10:19:20.282Z,13.43
2023-02-21T10:20:57.717Z,13.30
2023-02-21T10:22:38.208Z,12.73
2023-02-21T10:24:14.922Z,12.23
2023-02-21T10:25:49.124Z,14.07
2023-02-21T10:27:27.427Z,13.80
2023-02-21T10:29:01.929Z,14.20
2023-02-21T10:30:40.739Z,12.48
2023-02-21T10:32:15.317Z,12.82
2023-02-21T10:33:48.716Z,14.00
2023-02-21T10:35:21.961Z,12.38
2023-02-21T10:36:58.204Z,12.90
2023-02-21T10:38:31.382Z,13.35
2023-02-21T10:40:23.337Z,12.13
2023-02-21T10:41:58.284Z,12.98
2023-02-21T10:45:13.985Z,10.55
2023-02-21T10:46:59.732Z,12.45
2023-02-21T10:48:37.111Z,12.40
2023-02-21T10:50:12.282Z,11.55
2023-02-21T10:51:45.785Z,11.43
2023-02-21T10:53:30.590Z,12.00
2023-02-21T10:55:13.269Z,12.50
2023-02-21T10:56:53.091Z,11.13
2023-02-21T10:58:29.189Z,11.45
2023-02-21T11:00:10.077Z,11.30
2023-02-21T11:01:46.526Z,11.70
2023-02-21T11:03:27.580Z,11.18
2023-02-21T11:05:13.927Z,12.07
2023-02-21T11:06:51.787Z,10.98
2023-02-21T11:08:39.015Z,9.98
2023-02-21T11:10:43.938Z,9.40
2023-02-21T11:12:25.449Z,9.02
2023-02-21T11:14:22.912Z,10.05
2023-02-21T11:16:12.402Z,8.50
2023-02-21T11:17:46.950Z,7.68
2023-02-21T11:19:20.032Z,9.43
2023-02-21T11:20:54.788Z,8.77
2023-02-21T11:22:39.240Z,9.00
2023-02-21T11:24:13.491Z,8.60
2023-02-21T11:25:47.397Z,9.43
2023-02-21T11:27:20.943Z,8.52
2023-02-21T11:28:54.801Z,8.88
2023-02-21T11:30:28.117Z,8.75
2023-02-21T11:32:14.000Z,8.48
2023-02-21T11:33:56.303Z,10.23
2023-02-21T11:35:35.048Z,8.88
2023-02-21T11:37:08.278Z,8.65
2023-02-21T11:38:45.900Z,9.32
2023-02-21T11:40:35.509Z,8.82
2023-02-21T11:42:28.854Z,9.82
2023-02-21T11:44:02.139Z,9.43
2023-02-21T11:45:40.722Z,9.45
2023-02-21T11:47:22.932Z,10.65
2023-02-21T11:49:07.472Z,8.85
2023-02-21T11:50:49.500Z,10.40
2023-02-21T11:52:29.448Z,8.57
2023-02-21T11:54:03.754Z,8.82
2023-02-21T11:55:38.749Z,8.70
2023-02-21T11:57:23.170Z,9.15
2023-02-21T11:59:08.306Z,8.60
2023-02-21T12:01:01.835Z,9.90
2023-02-21T12:03:32.632Z,9.77
2023-02-21T12:05:26.341Z,9.30
2023-02-21T12:07:11.582Z,9.43
2023-02-21T12:08:52.301Z,9.90
2023-02-21T12:12:33.877Z,8.98
2023-02-21T12:14:49.504Z,9.43
2023-02-21T12:16:42.982Z,9.10
2023-02-21T12:18:46.162Z,9.43
2023-02-21T12:20:55.237Z,8.95
2023-02-21T12:22:52.583Z,8.48
2023-02-21T12:24:57.118Z,9.35
2023-02-21T12:26:49.515Z,9.68
2023-02-21T12:28:41.769Z,10.00
2023-02-21T12:34:32.508Z,8.25
2023-02-21T12:36:27.422Z,8.18
2023-02-21T12:38:09.888Z,8.63
2023-02-21T12:40:04.854Z,9.00
2023-02-21T12:42:04.083Z,9.27
2023-02-21T12:43:57.690Z,8.18
2023-02-21T12:45:48.549Z,9.85
2023-02-21T12:47:30.461Z,8.88
2023-02-21T12:49:10.217Z,9.55
2023-02-21T12:50:51.974Z,10.35
2023-02-21T12:52:31.432Z,9.52
2023-02-21T12:54:09.712Z,11.32
2023-02-21T12:55:48.831Z,9.65
2023-02-21T12:57:32.076Z,10.68
2023-02-21T12:59:16.875Z,10.00
2023-02-21T13:00:59.693Z,10.18
2023-02-21T13:02:45.316Z,11.60
2023-02-21T13:04:36.267Z,10.55
2023-02-21T13:06:21.012Z,10.98
2023-02-21T13:08:02.440Z,10.32
2023-02-21T13:09:39.167Z,12.07
2023-02-21T13:11:18.578Z,11.07
2023-02-21T13:13:00.019Z,11.50
2023-02-21T13:14:41.257Z,9.93
2023-02-21T13:16:15.592Z,11.38
2023-02-21T13:18:01.341Z,10.73
2023-02-21T13:19:43.945Z,11.73
2023-02-21T13:21:34.736Z,10.43
2023-02-21T13:23:27.185Z,11.65
2023-02-21T13:25:36.059Z,11.10
2023-02-21T13:27:50.588Z,10.57
2023-02-21T13:29:29.374Z,10.98
2023-02-21T13:31:05.873Z,11.57
2023-02-21T13:32:41.108Z,13.93
2023-02-21T13:34:20.885Z,14.07
2023-02-21T13:35:57.230Z,17.25
2023-02-21T13:37:36.387Z,13.73
2023-02-21T13:39:16.598Z,14.65
2023-02-21T13:40:55.421Z,19.30
2023-02-21T13:42:31.428Z,28.55
2023-02-21T13:44:11.403Z,26.52
2023-02-21T13:45:45.615Z,21.25
2023-02-21T13:47:21.622Z,23.05
2023-02-21T13:49:47.736Z,14.65
2023-02-21T13:51:47.072Z,11.63
2023-02-21T13:53:23.742Z,21.67
2023-02-21T13:55:27.313Z,18.05
2023-02-21T13:57:04.475Z,12.13
2023-02-21T13:58:40.096Z,12.52
2023-02-21T14:00:52.194Z,26.38
2023-02-21T14:02:32.650Z,13.02
2023-02-21T14:05:01.467Z,16.58
2023-02-21T14:06:37.780Z,13.10
2023-02-21T14:08:15.794Z,11.30
2023-02-21T14:09:50.405Z,15.23
2023-02-21T14:11:28.810Z,16.02
2023-02-21T14:13:21.558Z,12.27
2023-02-21T14:15:07.701Z,13.30
2023-02-21T14:16:50.630Z,16.48
2023-02-21T14:18:30.237Z,13.90
2023-02-21T14:20:05.968Z,21.27
2023-02-21T14:21:45.788Z,18.35
2023-02-21T14:23:23.233Z,13.80
2023-02-21T14:25:16.900Z,32.22
2023-02-21T14:26:55.390Z,25.70
2023-02-21T14:28:52.057Z,13.75
2023-02-21T14:30:34.919Z,15.30
2023-02-21T14:32:36.694Z,15.98
2023-02-21T14:34:12.822Z,18.25
2023-02-21T14:35:57.748Z,15.15
2023-02-21T14:37:37.617Z,15.05
2023-02-21T14:39:11.016Z,14.07
2023-02-21T14:41:01.111Z,12.73
2023-02-21T14:43:04.746Z,11.98
2023-02-21T14:46:51.586Z,10.40
2023-02-21T14:48:54.214Z,10.88
2023-02-21T14:50:43.184Z,11.68
2023-02-21T14:52:49.809Z,11.85
2023-02-21T14:54:59.990Z,11.50
2023-02-21T14:57:03.808Z,11.27
2023-02-21T14:59:26.215Z,11.68
2023-02-21T15:01:11.533Z,11.60
2023-02-21T15:02:53.999Z,12.75
2023-02-21T15:04:38.410Z,13.25
2023-02-21T15:06:19.113Z,19.20
2023-02-21T15:08:00.598Z,19.75
2023-02-21T15:09:34.028Z,19.15
2023-02-21T15:11:28.779Z,31.30
2023-02-21T15:13:06.684Z,20.38
2023-02-21T15:14:49.474Z,17.15
2023-02-21T15:16:22.856Z,18.65
2023-02-21T15:18:05.525Z,29.05
2023-02-21T15:19:38.783Z,35.67
2023-02-21T15:21:19.368Z,27.98
2023-02-21T15:23:03.302Z,30.05
2023-02-21T15:24:36.637Z,32.53
2023-02-21T15:26:21.781Z,30.00
2023-02-21T15:28:03.921Z,23.02
2023-02-21T15:29:37.253Z,27.23
2023-02-21T15:31:12.834Z,30.60
2023-02-21T15:32:56.159Z,31.27
2023-02-21T15:34:34.958Z,24.15
2023-02-21T15:36:17.615Z,15.60
2023-02-21T15:37:51.175Z,26.58
2023-02-21T15:39:30.983Z,18.27
2023-02-21T15:41:10.952Z,15.63
2023-02-21T15:42:46.235Z,15.57
2023-02-21T15:44:26.632Z,16.40
2023-02-21T15:46:04.991Z,16.42
2023-02-21T15:47:38.799Z,35.65
2023-02-21T15:49:21.348Z,28.88
2023-02-21T15:50:54.997Z,16.75
2023-02-21T15:52:35.438Z,16.15
2023-02-21T15:54:24.189Z,21.08
2023-02-21T15:56:19.976Z,22.33
2023-02-21T15:58:02.579Z,15.30
2023-02-21T15:59:37.384Z,13.32
2023-02-21T16:01:13.230Z,11.15
2023-02-21T16:02:46.525Z,12.27
2023-02-21T16:04:25.673Z,10.65
2023-02-21T16:06:17.956Z,10.85
2023-02-21T16:07:54.101Z,11.88
2023-02-21T16:09:31.344Z,15.60
2023-02-21T16:11:05.839Z,12.70
2023-02-21T16:12:43.419Z,11.82
2023-02-21T16:14:21.623Z,12.35
2023-02-21T16:16:01.226Z,10.95
2023-02-21T16:17:37.711Z,10.50
2023-02-21T16:19:11.340Z,9.80
2023-02-21T16:20:46.295Z,11.98
2023-02-21T16:22:30.802Z,19.60
2023-02-21T16:24:27.927Z,12.88
2023-02-21T16:26:04.565Z,10.75
2023-02-21T16:27:38.611Z,12.20
2023-02-21T16:29:11.632Z,11.40
2023-02-21T16:30:45.043Z,12.00
2023-02-21T16:32:22.388Z,14.40
2023-02-21T16:33:56.039Z,13.00
2023-02-21T16:35:29.897Z,10.80
2023-02-21T16:37:06.445Z,11.10
2023-02-21T16:38:39.589Z,10.13
2023-02-21T16:40:16.248Z,10.45
2023-02-21T16:41:49.719Z,9.85
2023-02-21T16:43:27.297Z,9.57
2023-02-21T16:45:00.560Z,9.25
2023-02-21T16:46:33.883Z,8.68
2023-02-21T16:48:09.055Z,9.07
2023-02-21T16:49:42.266Z,8.25
2023-02-21T16:51:15.755Z,9.13
2023-02-21T16:52:49.384Z,9.07
2023-02-21T16:54:22.493Z,9.10
2023-02-21T16:55:57.368Z,10.45
2023-02-21T16:59:04.998Z,8.75
2023-02-21T17:00:38.139Z,8.20
2023-02-21T17:02:15.462Z,9.40
2023-02-21T17:03:50.725Z,10.52
2023-02-21T17:05:25.692Z,8.82
2023-02-21T17:07:03.508Z,9.38
2023-02-21T17:08:36.629Z,9.32
2023-02-21T17:10:10.716Z,9.13
2023-02-21T17:11:43.804Z,8.93
2023-02-21T17:13:16.937Z,10.05
2023-02-21T17:14:50.056Z,9.18
2023-02-21T17:16:23.155Z,9.07
2023-02-21T17:17:56.331Z,8.80
2023-02-21T17:19:30.696Z,9.50
2023-02-21T17:21:05.544Z,9.45
2023-02-21T17:22:38.600Z,9.20
2023-02-21T17:24:14.339Z,9.57
2023-02-21T17:25:47.438Z,9.43
2023-02-21T17:27:20.608Z,10.15
2023-02-21T17:28:53.725Z,9.60
2023-02-21T17:30:27.208Z,9.82
2023-02-21T17:32:06.770Z,9.07
2023-02-21T17:33:41.264Z,10.18
2023-02-21T17:35:16.538Z,9.98
2023-02-21T17:36:50.664Z,9.30
2023-02-21T17:38:23.976Z,8.95
2023-02-21T17:39:58.305Z,9.82
2023-02-21T17:41:31.530Z,9.27
2023-02-21T17:43:08.834Z,10.88
2023-02-21T17:44:47.120Z,9.43
2023-02-21T17:46:21.784Z,9.80
2023-02-21T17:47:55.335Z,9.90
2023-02-21T17:49:29.872Z,9.55
2023-02-21T17:51:08.198Z,9.85
2023-02-21T17:52:41.858Z,9.63
2023-02-21T17:54:15.633Z,8.93
2023-02-21T17:55:49.005Z,8.77
2023-02-21T17:57:22.553Z,9.18
2023-02-21T17:58:57.213Z,8.77
2023-02-21T18:00:34.228Z,9.88
2023-02-21T18:02:08.921Z,10.13
2023-02-21T18:03:42.066Z,9.25
2023-02-21T18:05:15.405Z,9.85
2023-02-21T18:06:49.907Z,8.95
2023-02-21T18:08:23.333Z,9.52
2023-02-21T18:09:56.548Z,9.48
2023-02-21T18:11:30.031Z,9.68
2023-02-21T18:13:03.183Z,9.23
2023-02-21T18:14:36.356Z,9.13
2023-02-21T18:16:10.129Z,8.40
2023-02-21T18:17:43.316Z,8.45
2023-02-21T18:19:16.911Z,9.00
2023-02-21T18:20:50.080Z,8.52
2023-02-21T18:22:24.581Z,9.75
2023-02-21T18:23:57.772Z,10.35
2023-02-21T18:25:31.030Z,9.23
2023-02-21T18:27:04.547Z,10.07
2023-02-21T18:28:38.161Z,10.18
2023-02-21T18:30:12.651Z,9.27
2023-02-21T18:31:45.801Z,9.27
2023-02-21T18:33:19.438Z,9.55
2023-02-21T18:34:52.836Z,9.68
2023-02-21T18:36:26.502Z,9.07
2023-02-21T18:38:01.015Z,8.95
2023-02-21T18:39:34.181Z,9.13
2023-02-21T18:41:12.176Z,9.50
2023-02-21T18:42:47.506Z,8.70
2023-02-21T18:44:20.936Z,9.43
2023-02-21T18:45:57.139Z,9.32
2023-02-21T18:47:31.890Z,8.80
2023-02-21T18:49:05.921Z,9.05
2023-02-21T18:50:39.119Z,10.00
2023-02-21T18:52:13.064Z,9.55
2023-02-21T18:53:48.268Z,9.95
2023-02-21T18:55:21.585Z,9.57
2023-02-21T18:56:54.744Z,10.05
2023-02-21T18:58:28.013Z,10.18
2023-02-21T19:00:01.182Z,10.02
2023-02-21T19:01:34.498Z,9.63
2023-02-21T19:03:10.468Z,9.50
2023-02-21T19:04:44.197Z,10.35
2023-02-21T19:06:20.558Z,10.63
2023-02-21T19:07:54.536Z,9.38
2023-02-21T19:09:28.952Z,10.40
2023-02-21T19:11:02.198Z,10.07
2023-02-21T19:12:35.488Z,10.57
2023-02-21T19:14:08.777Z,9.80
2023-02-21T19:15:42.216Z,9.40
2023-02-21T19:17:15.551Z,10.00
2023-02-21T19:18:51.271Z,10.68
2023-02-21T19:20:24.452Z,10.10
2023-02-21T19:21:57.879Z,11.32
2023-02-21T19:23:31.016Z,10.65
2023-02-21T19:25:06.801Z,11.35
2023-02-21T19:26:42.990Z,10.93
2023-02-21T19:28:16.617Z,10.85
2023-02-21T19:29:49.956Z,11.15
2023-02-21T19:31:23.513Z,9.98
2023-02-21T19:32:59.038Z,10.02
2023-02-21T19:34:32.331Z,10.75
2023-02-21T19:36:06.729Z,10.27
2023-02-21T19:37:40.201Z,10.43
2023-02-21T19:39:13.680Z,9.90
2023-02-21T19:40:48.252Z,10.07
2023-02-21T19:42:22.115Z,10.85
2023-02-21T19:43:56.041Z,10.95
2023-02-21T19:45:29.659Z,10.93
2023-02-21T19:47:02.905Z,11.18
2023-02-21T19:48:36.020Z,11.75
2023-02-21T19:50:09.973Z,11.73
2023-02-21T19:51:44.411Z,9.98
2023-02-21T19:53:18.065Z,10.57
2023-02-21T19:54:51.303Z,11.15
2023-02-21T19:56:25.841Z,10.90
2023-02-21T19:57:58.982Z,11.95
2023-02-21T19:59:33.877Z,10.68
2023-02-21T20:01:07.857Z,11.00
2023-02-21T20:02:41.258Z,12.38
2023-02-21T20:04:17.588Z,11.68
2023-02-21T20:05:52.263Z,12.13
2023-02-21T20:07:25.451Z,13.50
2023-02-21T20:08:58.705Z,13.52
2023-02-21T20:10:32.028Z,12.20
2023-02-21T20:12:07.593Z,12.13
2023-02-21T20:13:42.003Z,12.55
2023-02-21T20:15:15.407Z,12.82
2023-02-21T20:16:48.688Z,14.07
2023-02-21T20:18:21.832Z,13.00
2023-02-21T20:19:54.929Z,13.38
2023-02-21T20:21:30.948Z,14.40
2023-02-21T20:23:04.541Z,13.90
2023-02-21T20:24:38.116Z,12.27
2023-02-21T20:26:12.898Z,14.43
2023-02-21T20:29:22.029Z,12.50
2023-02-21T20:30:55.201Z,13.98
2023-02-21T20:32:28.822Z,14.50
2023-02-21T20:34:02.764Z,13.98
2023-02-21T20:35:36.064Z,13.57
2023-02-21T20:37:10.960Z,12.75
2023-02-21T20:40:18.708Z,11.85
2023-02-21T20:41:52.022Z,12.70
2023-02-21T20:43:27.279Z,12.23
2023-02-21T20:45:01.876Z,13.32
2023-02-21T20:46:37.227Z,12.38
2023-02-21T20:48:11.602Z,12.77
2023-02-21T20:49:46.839Z,12.65
2023-02-21T20:51:30.394Z,12.60
2023-02-21T20:53:03.635Z,14.48
2023-02-21T20:54:37.107Z,12.07
2023-02-21T20:56:11.286Z,12.15
2023-02-21T20:57:44.612Z,12.70
2023-02-21T20:59:22.879Z,12.13
2023-02-21T21:00:56.315Z,11.90
2023-02-21T21:02:29.616Z,13.27
2023-02-21T21:04:05.148Z,14.23
2023-02-21T21:05:38.483Z,16.92
2023-02-21T21:07:15.310Z,15.15
2023-02-21T21:08:48.900Z,17.05
2023-02-21T21:10:22.216Z,13.85
2023-02-21T21:12:00.708Z,12.48
2023-02-21T21:13:33.848Z,11.65
2023-02-21T21:15:10.446Z,11.32
2023-02-21T21:16:43.886Z,11.40
2023-02-21T21:18:17.109Z,11.55
2023-02-21T21:19:50.941Z,11.93
2023-02-21T21:21:28.859Z,11.77
2023-02-21T21:23:02.009Z,12.07
2023-02-21T21:24:35.339Z,11.20
2023-02-21T21:26:09.824Z,9.98
2023-02-21T21:27:44.240Z,11.02
2023-02-21T21:29:17.569Z,10.93
2023-02-21T21:30:52.191Z,10.50
2023-02-21T21:32:26.592Z,10.25
2023-02-21T21:33:59.727Z,11.27
2023-02-21T21:35:33.117Z,10.02
2023-02-21T21:37:07.476Z,10.15
2023-02-21T21:38:40.777Z,10.52
2023-02-21T21:40:17.685Z,10.05
2023-02-21T21:41:52.851Z,10.25
2023-02-21T21:43:28.249Z,10.07
2023-02-21T21:45:02.206Z,9.95
2023-02-21T21:46:37.681Z,10.40
2023-02-21T21:48:11.264Z,10.20
2023-02-21T21:49:45.883Z,9.38
2023-02-21T21:51:19.473Z,9.80
2023-02-21T21:52:56.730Z,9.43
2023-02-21T21:54:31.354Z,9.45
2023-02-21T21:56:06.525Z,9.70
2023-02-21T21:57:39.616Z,9.63
2023-02-21T21:59:15.818Z,8.77